Time;durP1;ratioP1;P1;durP2;ratioP2;P2;SDS_P1;SDS_P2;PMS_P1;PMS_P2;Temp;Humidity;BMP_temperature;BMP_pressure;BME280_temperature;BME280_humidity;BME280_pressure;Samples;Min_cycle;Max_cycle;Signal;HPM_P1;HPM_P2
2022/08/10 00:01:52;;;;;;;0.00;0.00;;;17.40;99.90;;;;;;4912606;29;20479;-83
2022/08/10 00:04:20;;;;;;;0.00;0.00;;;17.50;99.90;;;;;;4912055;29;20036;-83
2022/08/10 00:06:50;;;;;;;0.00;0.00;;;17.50;99.90;;;;;;4914026;29;20056;-83
2022/08/10 00:09:18;;;;;;;0.00;0.00;;;19.90;99.90;;;;;;4912241;29;20103;-82
2022/08/10 00:11:45;;;;;;;0.00;0.00;;;17.50;99.90;;;;;;4910568;29;20040;-82
2022/08/10 00:14:12;;;;;;;0.00;0.00;;;17.50;99.90;;;;;;4909444;29;20052;-82
2022/08/10 00:16:39;;;;;;;0.00;0.00;;;17.50;99.90;;;;;;4924896;29;20044;-84
2022/08/10 00:19:06;;;;;;;0.00;0.00;;;17.50;99.90;;;;;;4909439;29;20056;-83
2022/08/10 00:21:32;;;;;;;0.00;0.00;;;17.40;99.90;;;;;;4912652;29;20048;-83
2022/08/10 00:23:59;;;;;;;0.00;0.00;;;17.40;99.90;;;;;;4913653;29;20098;-83
2022/08/10 00:26:27;;;;;;;0.00;0.00;;;17.50;99.90;;;;;;4908390;29;20052;-83
2022/08/10 00:29:14;;;;;;;0.00;0.00;;;17.50;99.90;;;;;;4919760;29;20060;-83
2022/08/10 00:31:41;;;;;;;0.00;0.00;;;17.50;99.90;;;;;;4911053;29;20508;-82
2022/08/10 00:34:25;;;;;;;0.00;0.00;;;17.50;99.90;;;;;;4919664;29;20056;-83
2022/08/10 00:36:51;;;;;;;0.00;0.00;;;17.50;99.90;;;;;;4916097;29;20036;-83
2022/08/10 00:39:18;;;;;;;0.00;0.00;;;17.40;99.90;;;;;;4911975;29;20070;-84
2022/08/10 00:41:46;;;;;;;0.00;0.00;;;17.50;99.90;;;;;;4906854;29;20077;-83
2022/08/10 00:44:33;;;;;;;0.00;0.00;;;17.40;99.90;;;;;;4922722;29;20065;-84
2022/08/10 00:47:00;;;;;;;0.00;0.00;;;17.40;99.90;;;;;;4904747;29;20051;-83
2022/08/10 00:49:27;;;;;;;0.00;0.00;;;17.30;99.90;;;;;;4913814;29;20049;-84
2022/08/10 00:51:54;;;;;;;0.00;0.00;;;17.40;99.90;;;;;;4913115;29;20056;-83
2022/08/10 00:54:21;;;;;;;0.00;0.00;;;17.40;99.90;;;;;;4915406;29;20099;-82
2022/08/10 00:56:52;;;;;;;0.00;0.00;;;17.40;99.90;;;;;;4913739;29;20115;-84
2022/08/10 00:59:39;;;;;;;0.00;0.00;;;17.40;99.90;;;;;;4908026;29;20063;-82
2022/08/10 01:02:30;;;;;;;0.00;0.00;;;17.30;99.90;;;;;;4914660;29;20051;-83
2022/08/10 01:05:00;;;;;;;0.00;0.00;;;17.30;99.90;;;;;;4912613;29;20067;-83
2022/08/10 01:07:55;;;;;;;0.00;0.00;;;17.30;99.90;;;;;;4908920;29;20123;-83
2022/08/10 01:10:32;;;;;;;0.00;0.00;;;17.30;99.90;;;;;;4907194;29;20100;-83
2022/08/10 01:13:08;;;;;;;0.00;0.00;;;17.20;99.90;;;;;;4913744;29;20052;-83
2022/08/10 01:15:45;;;;;;;0.00;0.00;;;17.20;99.90;;;;;;4910283;29;20096;-83
2022/08/10 01:18:17;;;;;;;0.00;0.00;;;17.10;99.90;;;;;;4915448;29;20048;-83
2022/08/10 01:20:58;;;;;;;0.00;0.00;;;17.10;99.90;;;;;;4911294;29;20091;-83
2022/08/10 01:23:53;;;;;;;0.00;0.00;;;17.00;99.90;;;;;;4913235;29;20052;-82
2022/08/10 01:26:41;;;;;;;0.00;0.00;;;16.90;99.90;;;;;;4906678;29;20059;-83
2022/08/10 01:29:37;;;;;;;0.00;0.00;;;16.70;99.90;;;;;;4908499;29;20047;-84
2022/08/10 01:32:06;;;;;;;0.00;0.00;;;16.70;99.90;;;;;;4903531;29;20557;-83
2022/08/10 01:34:41;;;;;;;0.00;0.00;;;16.70;99.90;;;;;;4909555;29;20040;-81
2022/08/10 01:37:13;;;;;;;0.00;0.00;;;16.70;99.90;;;;;;4907168;29;20052;-83
2022/08/10 01:39:45;;;;;;;0.00;0.00;;;16.60;99.90;;;;;;4910499;29;20052;-83
2022/08/10 01:42:15;;;;;;;0.00;0.00;;;16.60;99.90;;;;;;4907400;29;20047;-82
2022/08/10 01:44:50;;;;;;;0.00;0.00;;;16.50;99.90;;;;;;4911622;29;20092;-83
2022/08/10 01:50:08;;;;;;;0.00;0.00;;;16.20;99.90;;;;;;4908177;29;20492;-83
2022/08/10 01:52:39;;;;;;;0.00;0.00;;;16.10;99.90;;;;;;4911787;29;20492;-82
2022/08/10 01:55:07;;;;;;;0.00;0.00;;;16.00;99.90;;;;;;4908553;29;20108;-83
2022/08/10 01:57:36;;;;;;;0.00;0.00;;;16.00;99.90;;;;;;4912480;29;20096;-82
2022/08/10 02:00:19;;;;;;;0.00;0.00;;;15.90;99.90;;;;;;4853108;29;20136;-84
2022/08/10 02:02:47;;;;;;;0.08;0.08;;;15.80;99.90;;;;;;4870020;29;20086;-82
2022/08/10 02:05:16;;;;;;;0.00;0.00;;;15.80;99.90;;;;;;4856784;29;20514;-83
2022/08/10 02:07:45;;;;;;;0.00;0.00;;;15.70;99.90;;;;;;4856345;29;20057;-82
2022/08/10 02:10:15;;;;;;;0.00;0.00;;;15.70;99.90;;;;;;4869258;29;20105;-82
2022/08/10 02:12:45;;;;;;;0.00;0.00;;;15.60;99.90;;;;;;4853693;29;20574;-82
2022/08/10 02:15:16;;;;;;;0.00;0.00;;;15.60;99.90;;;;;;4867331;29;20522;-82
2022/08/10 02:17:48;;;;;;;0.00;0.00;;;15.60;99.90;;;;;;4875857;29;20606;-82
2022/08/10 02:20:30;;;;;;;0.00;0.00;;;15.50;99.90;;;;;;4870809;29;20094;-82
2022/08/10 02:23:00;;;;;;;0.00;0.00;;;15.40;99.90;;;;;;4873144;29;20058;-82
2022/08/10 02:25:28;;;;;;;0.00;0.00;;;15.40;99.90;;;;;;4867459;29;20102;-82
2022/08/10 02:28:11;;;;;;;0.00;0.00;;;15.30;99.90;;;;;;4859374;29;20121;-82
2022/08/10 02:30:59;;;;;;;0.00;0.00;;;15.30;99.90;;;;;;4875153;29;20082;-82
2022/08/10 02:33:29;;;;;;;0.00;0.00;;;15.30;99.90;;;;;;4911852;29;20064;-84
2022/08/10 02:36:00;;;;;;;0.00;0.00;;;15.30;99.90;;;;;;4910834;29;20051;-82
2022/08/10 02:38:31;;;;;;;0.00;0.00;;;15.30;99.90;;;;;;4912447;29;20099;-82
2022/08/10 02:41:26;;;;;;;0.00;0.00;;;15.30;99.90;;;;;;4922284;29;20397;-81
2022/08/10 02:44:20;;;;;;;0.00;0.00;;;15.40;99.90;;;;;;4916300;29;20428;-82
2022/08/10 02:47:12;;;;;;;0.00;0.00;;;15.50;99.90;;;;;;4911766;29;20052;-83
2022/08/10 02:49:42;;;;;;;0.00;0.00;;;15.50;99.90;;;;;;4912858;29;20268;-82
2022/08/10 02:52:16;;;;;;;0.00;0.00;;;15.50;99.90;;;;;;4911170;29;20091;-83
2022/08/10 02:54:49;;;;;;;0.00;0.00;;;15.60;99.90;;;;;;4915222;29;20120;-82
2022/08/10 02:57:21;;;;;;;0.00;0.00;;;15.60;99.90;;;;;;4915096;29;20052;-82
2022/08/10 02:59:51;;;;;;;0.00;0.00;;;15.60;99.90;;;;;;4914376;29;20520;-82
2022/08/10 03:02:21;;;;;;;;;;;15.60;99.90;;;;;;4913672;29;20107;-84
2022/08/10 03:04:55;;;;;;;0.00;0.00;;;15.50;99.90;;;;;;4913200;29;19982;-82
2022/08/10 03:07:27;;;;;;;0.00;0.00;;;15.50;99.90;;;;;;4929925;29;20053;-82
2022/08/10 03:10:15;;;;;;;0.00;0.00;;;15.40;99.90;;;;;;4921424;29;20091;-84
2022/08/10 03:12:43;;;;;;;0.00;0.00;;;15.30;99.90;;;;;;4914133;29;20516;-83
2022/08/10 03:15:12;;;;;;;0.00;0.00;;;15.30;99.90;;;;;;4914551;29;20055;-81
2022/08/10 03:17:42;;;;;;;0.00;0.00;;;15.20;99.90;;;;;;4911109;29;20036;-82
2022/08/10 03:20:27;;;;;;;0.00;0.00;;;15.20;99.90;;;;;;4908847;29;20059;-82
2022/08/10 03:23:08;;;;;;;0.00;0.00;;;15.10;99.90;;;;;;4916338;29;20056;-82
2022/08/10 03:25:36;;;;;;;0.00;0.00;;;15.10;99.90;;;;;;4923157;29;20063;-83
2022/08/10 03:28:04;;;;;;;0.00;0.00;;;14.90;99.90;;;;;;4916237;29;20055;-82
2022/08/10 03:30:32;;;;;;;0.00;0.00;;;14.80;99.90;;;;;;4913581;29;20051;-82
2022/08/10 03:33:02;;;;;;;0.00;0.00;;;14.70;99.90;;;;;;4910288;29;20051;-81
2022/08/10 03:35:31;;;;;;;0.00;0.00;;;14.70;99.90;;;;;;4911301;29;20036;-81
2022/08/10 03:37:58;;;;;;;0.10;0.10;;;16.30;99.90;;;;;;4917332;29;20048;-84
2022/08/10 03:40:29;;;;;;;0.00;0.00;;;14.60;99.90;;;;;;4909774;29;20069;-83
2022/08/10 03:43:15;;;;;;;0.00;0.00;;;14.60;99.90;;;;;;4913553;29;20392;-83
2022/08/10 03:45:44;;;;;;;0.03;0.03;;;14.60;99.90;;;;;;4913570;29;20107;-84
2022/08/10 03:48:22;;;;;;;0.10;0.10;;;14.60;99.90;;;;;;4915101;29;20107;-83
2022/08/10 03:50:51;;;;;;;0.00;0.00;;;14.60;99.90;;;;;;4911195;29;20055;-83
2022/08/10 03:53:19;;;;;;;0.00;0.00;;;14.40;99.90;;;;;;4909466;29;20103;-82
2022/08/10 03:56:07;;;;;;;0.00;0.00;;;14.60;99.90;;;;;;4911484;29;20661;-84
2022/08/10 03:58:55;;;;;;;0.00;0.00;;;14.50;99.90;;;;;;4914770;29;20066;-83
2022/08/10 04:01:22;;;;;;;0.00;0.00;;;14.40;99.90;;;;;;4907802;29;20065;-84
2022/08/10 04:04:09;;;;;;;0.00;0.00;;;14.50;99.90;;;;;;4906535;29;20046;-82
2022/08/10 04:06:42;;;;;;;0.00;0.00;;;14.40;99.90;;;;;;4912138;29;20040;-83
2022/08/10 04:09:09;;;;;;;0.00;0.00;;;14.40;99.90;;;;;;4912294;29;20445;-82
2022/08/10 04:11:36;;;;;;;0.00;0.00;;;14.50;99.90;;;;;;4916712;29;20040;-83
2022/08/10 04:14:06;;;;;;;0.00;0.00;;;14.50;99.90;;;;;;4914176;29;20536;-82
2022/08/10 04:16:53;;;;;;;0.00;0.00;;;14.50;99.90;;;;;;4910073;29;20060;-82
2022/08/10 04:19:21;;;;;;;0.00;0.00;;;14.50;99.90;;;;;;4912566;29;20100;-84
2022/08/10 04:21:58;;;;;;;0.00;0.00;;;14.50;99.90;;;;;;4911704;29;20092;-83
2022/08/10 04:24:28;;;;;;;0.00;0.00;;;14.50;99.90;;;;;;4920196;29;20045;-83
2022/08/10 04:26:59;;;;;;;0.00;0.00;;;14.50;99.90;;;;;;4910975;29;22850;-83
2022/08/10 04:29:26;;;;;;;0.00;0.00;;;14.50;99.90;;;;;;4912622;29;20416;-82
2022/08/10 04:31:53;;;;;;;0.00;0.00;;;14.50;99.90;;;;;;4912013;29;20055;-82
2022/08/10 04:34:22;;;;;;;0.00;0.00;;;14.50;99.90;;;;;;4913426;29;20412;-84
2022/08/10 04:36:52;;;;;;;0.00;0.00;;;14.50;99.90;;;;;;4905799;29;20108;-82
2022/08/10 04:39:20;;;;;;;;;;;14.50;99.90;;;;;;4909807;29;20043;-82
2022/08/10 04:41:47;;;;;;;0.00;0.00;;;14.50;99.90;;;;;;4910725;29;19938;-84
2022/08/10 04:44:14;;;;;;;0.00;0.00;;;14.40;99.90;;;;;;4904561;29;20048;-82
2022/08/10 04:46:41;;;;;;;0.00;0.00;;;14.50;99.90;;;;;;4913974;29;21403;-84
2022/08/10 04:49:24;;;;;;;0.00;0.00;;;14.40;99.90;;;;;;4909215;29;20529;-82
2022/08/10 04:52:13;;;;;;;0.00;0.00;;;14.50;99.90;;;;;;4911485;29;20048;-83
2022/08/10 04:54:40;;;;;;;0.00;0.00;;;14.50;99.90;;;;;;4912948;29;20408;-83
2022/08/10 04:57:07;;;;;;;0.00;0.00;;;14.50;99.90;;;;;;4916510;29;20059;-83
2022/08/10 04:59:34;;;;;;;0.00;0.00;;;14.50;99.90;;;;;;4914209;29;20048;-84
2022/08/10 05:02:01;;;;;;;0.00;0.00;;;14.60;99.90;;;;;;4939570;23;20044;-86
2022/08/10 05:04:48;;;;;;;0.00;0.00;;;14.60;99.90;;;;;;4927463;29;20431;-87
2022/08/10 05:07:16;;;;;;;0.00;0.00;;;14.70;99.90;;;;;;4935676;29;20095;-87
2022/08/10 05:09:45;;;;;;;0.00;0.00;;;14.70;99.90;;;;;;4944462;28;20052;-88
2022/08/10 05:12:31;;;;;;;0.00;0.00;;;14.80;99.90;;;;;;4925292;29;20054;-87
2022/08/10 05:15:02;;;;;;;0.00;0.00;;;14.90;99.90;;;;;;4930674;29;20424;-87
2022/08/10 05:17:29;;;;;;;0.00;0.00;;;14.90;99.90;;;;;;4931415;29;20054;-87
2022/08/10 05:19:56;;;;;;;0.00;0.00;;;15.00;99.90;;;;;;4928503;29;20044;-88
2022/08/10 05:22:33;;;;;;;0.00;0.00;;;15.00;99.90;;;;;;4928603;29;20508;-86
2022/08/10 05:25:01;;;;;;;0.00;0.00;;;15.10;99.90;;;;;;4928867;29;20055;-88
2022/08/10 05:27:27;;;;;;;0.00;0.00;;;15.20;99.90;;;;;;4927588;29;20051;-87
2022/08/10 05:29:54;;;;;;;0.00;0.00;;;15.30;99.90;;;;;;4943217;28;20059;-87
2022/08/10 05:32:28;;;;;;;0.00;0.00;;;15.30;99.90;;;;;;4928390;29;20056;-89
2022/08/10 05:34:56;;;;;;;0.00;0.00;;;15.50;99.90;;;;;;4932673;29;20043;-88
2022/08/10 05:37:24;;;;;;;0.00;0.00;;;15.60;99.90;;;;;;4932034;29;20050;-88
2022/08/10 05:40:12;;;;;;;0.00;0.00;;;15.70;99.90;;;;;;4929652;29;20050;-88
2022/08/10 05:42:40;;;;;;;0.00;0.00;;;15.70;99.90;;;;;;4932471;29;20043;-90
2022/08/10 05:45:18;;;;;;;0.00;0.00;;;15.90;99.90;;;;;;4929085;29;20055;-85
2022/08/10 05:47:46;;;;;;;0.00;0.00;;;16.00;99.90;;;;;;4930009;29;20066;-87
2022/08/10 05:50:33;;;;;;;0.00;0.00;;;16.00;99.90;;;;;;4929839;29;20516;-86
2022/08/10 05:53:01;;;;;;;0.00;0.00;;;16.10;99.90;;;;;;4945471;29;20055;-88
2022/08/10 05:55:49;;;;;;;0.00;0.00;;;16.10;99.90;;;;;;4928707;29;20233;-89
2022/08/10 05:58:16;;;;;;;0.00;0.00;;;16.30;99.90;;;;;;4926550;29;20063;-90
2022/08/10 06:00:45;;;;;;;0.00;0.00;;;16.30;99.90;;;;;;4946295;29;20048;-90
2022/08/10 06:03:19;;;;;;;0.00;0.00;;;16.40;99.90;;;;;;4930164;29;20055;-89
2022/08/10 06:05:54;;;;;;;0.00;0.00;;;16.60;99.90;;;;;;4929655;29;20052;-89
2022/08/10 06:08:27;;;;;;;0.00;0.00;;;16.50;99.90;;;;;;4941531;28;20070;-89
2022/08/10 06:10:56;;;;;;;0.00;0.00;;;16.50;99.90;;;;;;4930977;29;20062;-87
2022/08/10 06:16:40;;;;;;;0.00;0.00;;;17.30;99.90;;;;;;4929388;29;20062;-89
2022/08/10 06:19:10;;;;;;;0.00;0.00;;;16.80;99.90;;;;;;4949796;29;20106;-89
2022/08/10 06:21:41;;;;;;;0.00;0.00;;;16.80;99.90;;;;;;4931482;29;20059;-88
2022/08/10 06:24:29;;;;;;;0.00;0.00;;;16.90;99.90;;;;;;4933272;29;20048;-87
2022/08/10 06:26:58;;;;;;;0.00;0.00;;;16.90;99.90;;;;;;4934618;29;20055;-89
2022/08/10 06:29:27;;;;;;;0.00;0.00;;;17.10;99.90;;;;;;4936157;29;20448;-87
2022/08/10 06:31:55;;;;;;;0.00;0.00;;;17.00;99.90;;;;;;4931972;29;20456;-88
2022/08/10 06:34:27;;;;;;;0.00;0.00;;;17.10;99.90;;;;;;4950210;28;20060;-89
2022/08/10 06:36:56;;;;;;;0.00;0.00;;;17.20;99.90;;;;;;4933025;29;20048;-87
2022/08/10 06:39:24;;;;;;;0.00;0.00;;;17.30;99.90;;;;;;4936114;29;20468;-91
2022/08/10 06:42:14;;;;;;;0.10;0.10;;;17.40;99.90;;;;;;4934712;29;20048;-88
2022/08/10 06:44:51;;;;;;;0.00;0.00;;;17.50;99.90;;;;;;4935661;29;20107;-87
2022/08/10 06:47:21;;;;;;;0.00;0.00;;;17.60;99.90;;;;;;4931866;29;20047;-88
2022/08/10 06:49:52;;;;;;;0.00;0.00;;;17.70;99.90;;;;;;4936221;29;20428;-88
2022/08/10 06:52:28;;;;;;;0.00;0.00;;;17.80;99.90;;;;;;4934022;29;20040;-89
2022/08/10 06:54:58;;;;;;;0.00;0.00;;;17.90;99.90;;;;;;4936792;29;20052;-89
2022/08/10 06:57:31;;;;;;;0.00;0.00;;;18.00;99.90;;;;;;4935612;29;20090;-88
2022/08/10 07:00:00;;;;;;;0.00;0.00;;;18.00;99.90;;;;;;4935352;29;20044;-86
2022/08/10 07:02:36;;;;;;;0.00;0.00;;;18.10;99.90;;;;;;4935855;29;20074;-89
2022/08/10 07:05:07;;;;;;;0.00;0.00;;;18.20;99.90;;;;;;4929769;29;20461;-87
2022/08/10 07:07:37;;;;;;;0.00;0.00;;;18.30;99.90;;;;;;4930778;29;20507;-87
2022/08/10 07:10:07;;;;;;;0.00;0.00;;;18.30;99.90;;;;;;4936976;29;20512;-89
2022/08/10 07:12:37;;;;;;;0.00;0.00;;;18.50;99.90;;;;;;4929352;29;20051;-86
2022/08/10 07:15:07;;;;;;;0.00;0.00;;;18.60;99.90;;;;;;4948582;29;20047;-88
2022/08/10 07:17:36;;;;;;;0.00;0.00;;;18.70;99.90;;;;;;4931418;29;20044;-88
2022/08/10 07:20:10;;;;;;;0.00;0.00;;;18.80;99.90;;;;;;4935850;29;20074;-88
2022/08/10 07:22:39;;;;;;;0.00;0.00;;;19.00;99.90;;;;;;4934934;29;20111;-88
2022/08/10 07:25:27;;;;;;;0.00;0.00;;;19.00;99.90;;;;;;4926983;29;20050;-87
2022/08/10 07:27:58;;;;;;;0.00;0.00;;;19.10;99.90;;;;;;4930797;29;20047;-87
2022/08/10 07:30:30;;;;;;;0.00;0.00;;;20.30;99.90;;;;;;4930910;29;20495;-87
2022/08/10 07:32:59;;;;;;;0.00;0.00;;;19.30;99.90;;;;;;4939817;29;20047;-86
2022/08/10 07:35:27;;;;;;;0.00;0.00;;;19.40;99.90;;;;;;4947369;29;20123;-88
2022/08/10 07:38:04;;;;;;;0.00;0.00;;;19.50;99.90;;;;;;4935057;29;20563;-88
2022/08/10 07:40:33;;;;;;;0.00;0.00;;;19.60;99.90;;;;;;4933498;29;20111;-87
2022/08/10 07:43:02;;;;;;;0.00;0.00;;;19.70;99.80;;;;;;4934109;29;20055;-87
2022/08/10 07:45:32;;;;;;;0.00;0.00;;;19.90;99.10;;;;;;4930315;29;20601;-89
2022/08/10 07:48:04;;;;;;;0.00;0.00;;;19.80;99.30;;;;;;4932222;29;20036;-88
2022/08/10 07:50:36;;;;;;;0.03;0.03;;;19.90;99.20;;;;;;4933313;29;20472;-88
2022/08/10 07:53:04;;;;;;;0.00;0.00;;;20.80;99.60;;;;;;4926177;29;20395;-89
2022/08/10 07:55:32;;;;;;;0.00;0.00;;;20.10;99.30;;;;;;4931114;29;20170;-87
2022/08/10 07:58:23;;;;;;;0.00;0.00;;;21.00;98.40;;;;;;4928486;29;20054;-88
2022/08/10 08:00:52;;;;;;;0.00;0.00;;;20.30;98.50;;;;;;4949832;29;20043;-87
2022/08/10 08:03:27;;;;;;;0.00;0.00;;;20.50;97.90;;;;;;4931031;29;20515;-90
2022/08/10 08:05:55;;;;;;;0.00;0.00;;;20.60;96.50;;;;;;4934335;29;20322;-89
2022/08/10 08:08:32;;;;;;;0.00;0.00;;;20.60;96.70;;;;;;4934756;29;20044;-89
2022/08/10 08:11:00;;;;;;;0.00;0.00;;;20.70;96.60;;;;;;4934864;29;20484;-89
2022/08/10 08:13:29;;;;;;;0.00;0.00;;;20.80;96.30;;;;;;4926346;29;20035;-88
2022/08/10 08:15:57;;;;;;;0.00;0.00;;;20.90;95.60;;;;;;4933698;29;20523;-87
2022/08/10 08:18:45;;;;;;;0.00;0.00;;;20.90;95.80;;;;;;4930146;29;20051;-89
2022/08/10 08:21:32;;;;;;;0.00;0.00;;;20.90;95.50;;;;;;4927709;29;20058;-88
2022/08/10 08:24:22;;;;;;;0.00;0.00;;;21.00;95.60;;;;;;4927130;29;20052;-88
2022/08/10 08:27:00;;;;;;;0.00;0.00;;;21.00;95.50;;;;;;4932349;29;20689;-88
2022/08/10 08:29:32;;;;;;;0.00;0.00;;;21.10;95.20;;;;;;4934446;29;20051;-88
2022/08/10 08:32:00;;;;;;;0.00;0.00;;;21.30;94.60;;;;;;4933547;29;20032;-86
2022/08/10 08:34:31;;;;;;;0.00;0.00;;;21.30;94.80;;;;;;4948321;29;20111;-89
2022/08/10 08:36:59;;;;;;;0.00;0.00;;;21.40;95.00;;;;;;4934054;29;20036;-89
2022/08/10 08:39:26;;;;;;;0.00;0.00;;;21.50;94.50;;;;;;4949615;29;20511;-86
2022/08/10 08:42:11;;;;;;;0.00;0.00;;;23.20;94.50;;;;;;4932532;29;20482;-89
2022/08/10 08:44:50;;;;;;;0.00;0.00;;;21.60;94.20;;;;;;4931459;29;20047;-88
2022/08/10 08:47:45;;;;;;;0.00;0.00;;;21.80;94.70;;;;;;4949419;29;20055;-88
2022/08/10 08:50:43;;;;;;;0.00;0.00;;;21.90;94.70;;;;;;4946849;29;20610;-89
2022/08/10 08:53:24;;;;;;;0.00;0.00;;;22.00;95.00;;;;;;4931644;29;20075;-89
2022/08/10 08:56:20;;;;;;;0.00;0.00;;;22.00;94.60;;;;;;4940453;29;20496;-88
2022/08/10 08:59:04;;;;;;;0.00;0.00;;;22.10;94.30;;;;;;4934314;29;20059;-89
2022/08/10 09:01:48;;;;;;;0.00;0.00;;;22.20;94.60;;;;;;4931707;29;20055;-89
2022/08/10 09:04:45;;;;;;;0.00;0.00;;;24.10;94.40;;;;;;4929224;29;20047;-83
2022/08/10 09:07:40;;;;;;;0.00;0.00;;;22.60;93.40;;;;;;4940339;28;20118;-89
2022/08/10 09:10:37;;;;;;;0.00;0.00;;;22.70;92.80;;;;;;4927509;29;20051;-89
2022/08/10 09:13:10;;;;;;;0.00;0.00;;;23.40;92.50;;;;;;4943355;29;20155;-88
2022/08/10 09:15:44;;;;;;;0.00;0.00;;;22.60;91.40;;;;;;4926344;29;20055;-87
2022/08/10 09:18:20;;;;;;;0.00;0.00;;;22.90;91.20;;;;;;4924273;29;20126;-87
2022/08/10 09:20:52;;;;;;;0.00;0.00;;;23.00;91.10;;;;;;4918361;29;20535;-89
2022/08/10 09:23:24;;;;;;;0.00;0.00;;;23.30;91.30;;;;;;4945822;29;20107;-87
2022/08/10 09:26:17;;;;;;;0.00;0.00;;;25.60;91.80;;;;;;4929578;29;20051;-89
2022/08/10 09:28:44;;;;;;;0.00;0.00;;;23.80;90.60;;;;;;4932422;29;20047;-87
2022/08/10 09:31:42;;;;;;;0.00;0.00;;;23.40;90.40;;;;;;4925432;29;20059;-90
2022/08/10 09:34:42;;;;;;;0.00;0.00;;;23.40;91.90;;;;;;4938915;28;20058;-90
2022/08/10 09:37:37;;;;;;;0.00;0.00;;;23.50;92.30;;;;;;4928161;29;20060;-87
2022/08/10 09:40:30;;;;;;;0.00;0.00;;;23.60;91.80;;;;;;4925979;29;20050;-87
2022/08/10 09:43:29;;;;;;;0.00;0.00;;;23.70;92.50;;;;;;4930015;29;20047;-85
2022/08/10 09:46:05;;;;;;;0.00;0.00;;;23.70;92.20;;;;;;4929512;29;20055;-84
2022/08/10 09:48:44;;;;;;;0.00;0.00;;;23.70;90.20;;;;;;4943157;29;20532;-90
2022/08/10 09:51:25;;;;;;;0.00;0.00;;;23.80;87.60;;;;;;4931350;29;20098;-89
2022/08/10 09:54:25;;;;;;;0.00;0.00;;;23.90;87.40;;;;;;4929793;29;20055;-89
2022/08/10 09:57:02;;;;;;;0.00;0.00;;;24.10;85.70;;;;;;4929784;29;20442;-85
2022/08/10 09:59:56;;;;;;;0.00;0.00;;;24.00;86.00;;;;;;4924209;29;20490;-87
2022/08/10 10:02:34;;;;;;;;;;;24.20;86.00;;;;;;4942506;28;20504;-87
2022/08/10 10:05:13;;;;;;;0.00;0.00;;;24.40;85.20;;;;;;4932895;28;19922;-87
2022/08/10 10:07:51;;;;;;;0.00;0.00;;;24.30;86.10;;;;;;4927769;29;20051;-89
2022/08/10 10:10:23;;;;;;;0.00;0.00;;;24.20;85.40;;;;;;4944377;28;20052;-88
2022/08/10 10:12:55;;;;;;;0.00;0.00;;;24.20;85.70;;;;;;4924034;29;20044;-87
2022/08/10 10:15:32;;;;;;;0.00;0.00;;;24.30;85.70;;;;;;4928153;29;20055;-87
2022/08/10 10:18:21;;;;;;;0.00;0.00;;;24.80;84.50;;;;;;4931555;29;20110;-87
2022/08/10 10:20:56;;;;;;;0.00;0.00;;;24.60;87.40;;;;;;4944916;29;20096;-86
2022/08/10 10:23:39;;;;;;;0.00;0.00;;;24.60;88.00;;;;;;4927926;29;20048;-85
2022/08/10 10:26:18;;;;;;;0.00;0.00;;;24.70;83.30;;;;;;4927365;29;20416;-87
2022/08/10 10:29:01;;;;;;;0.00;0.00;;;24.80;86.50;;;;;;4926901;29;20044;-87
2022/08/10 10:31:56;;;;;;;0.00;0.00;;;24.90;84.80;;;;;;4928021;29;20039;-88
2022/08/10 10:34:32;;;;;;;0.00;0.00;;;25.00;80.90;;;;;;4929805;29;20044;-87
2022/08/10 10:37:00;;;;;;;0.00;0.00;;;24.90;80.10;;;;;;4927288;29;20055;-87
2022/08/10 10:39:30;;;;;;;0.00;0.00;;;24.90;80.20;;;;;;4924395;29;20064;-87
2022/08/10 10:42:07;;;;;;;0.00;0.00;;;25.00;78.20;;;;;;4928102;29;20055;-85
2022/08/10 10:45:05;;;;;;;0.00;0.00;;;25.00;79.10;;;;;;4930575;29;20063;-87
2022/08/10 10:47:46;;;;;;;0.00;0.00;;;25.10;80.30;;;;;;4929482;29;20056;-87
2022/08/10 10:50:21;;;;;;;0.00;0.00;;;25.00;85.90;;;;;;4925679;29;20476;-86
2022/08/10 10:52:57;;;;;;;0.00;0.00;;;25.10;87.80;;;;;;4926349;29;20047;-85
2022/08/10 10:55:35;;;;;;;0.00;0.00;;;25.10;85.90;;;;;;4929570;29;20063;-87
2022/08/10 10:58:25;;;;;;;0.00;0.00;;;25.20;86.80;;;;;;4928767;29;20040;-89
2022/08/10 11:01:02;;;;;;;0.00;0.00;;;25.40;86.60;;;;;;4931167;29;20063;-87
2022/08/10 11:09:03;;;;;;;0.00;0.00;;;25.40;84.20;;;;;;4962685;29;20043;-86
2022/08/10 11:11:40;;;;;;;0.00;0.00;;;25.30;84.60;;;;;;4962510;29;20115;-86
2022/08/10 11:14:31;;;;;;;0.00;0.00;;;25.30;85.10;;;;;;4945967;29;20047;-87
2022/08/10 11:17:04;;;;;;;0.00;0.00;;;25.90;84.00;;;;;;4941563;29;20056;-86
2022/08/10 11:19:40;;;;;;;0.00;0.00;;;25.40;84.80;;;;;;4942292;29;20085;-86
2022/08/10 11:22:32;;;;;;;0.00;0.00;;;25.40;83.50;;;;;;4939545;29;20044;-86
2022/08/10 11:25:11;;;;;;;0.00;0.00;;;25.40;83.70;;;;;;4942042;29;20075;-86
2022/08/10 11:27:48;;;;;;;0.00;0.00;;;25.50;82.90;;;;;;4946589;29;20043;-85
2022/08/10 11:30:19;;;;;;;0.00;0.00;;;25.60;83.20;;;;;;4941462;29;20055;-86
2022/08/10 11:33:02;;;;;;;0.00;0.00;;;25.70;82.30;;;;;;4946772;29;20085;-85
2022/08/10 11:35:37;;;;;;;0.00;0.00;;;25.70;82.30;;;;;;4943976;29;20039;-87
2022/08/10 11:38:19;;;;;;;0.00;0.00;;;25.80;80.60;;;;;;4945980;29;20051;-86
2022/08/10 11:41:08;;;;;;;0.00;0.00;;;25.90;79.80;;;;;;4941396;29;20054;-83
2022/08/10 11:44:10;;;;;;;0.00;0.00;;;25.90;80.30;;;;;;4954180;28;20057;-83
2022/08/10 11:46:44;;;;;;;0.00;0.00;;;26.20;80.80;;;;;;4943973;29;20040;-86
2022/08/10 11:49:16;;;;;;;0.00;0.00;;;28.30;82.90;;;;;;4944478;29;20059;-86
2022/08/10 11:51:46;;;;;;;0.00;0.00;;;26.00;80.60;;;;;;4944944;29;20431;-86
2022/08/10 11:54:23;;;;;;;0.00;0.00;;;27.00;80.30;;;;;;4941257;29;20559;-86
2022/08/10 11:56:53;;;;;;;0.00;0.00;;;27.50;78.60;;;;;;4947111;29;20044;-86
2022/08/10 12:02:30;;;;;;;0.00;0.00;;;28.00;79.90;;;;;;4940251;29;20424;-86
2022/08/10 12:05:01;;;;;;;0.00;0.00;;;26.60;78.30;;;;;;4944422;29;20052;-87
2022/08/10 12:07:30;;;;;;;0.00;0.00;;;27.10;79.20;;;;;;4959302;29;20055;-86
2022/08/10 12:10:19;;;;;;;0.00;0.00;;;26.60;79.10;;;;;;4944829;29;20111;-86
2022/08/10 12:13:00;;;;;;;0.00;0.00;;;26.60;80.40;;;;;;4936212;29;20052;-84
2022/08/10 12:15:37;;;;;;;0.00;0.00;;;26.50;78.50;;;;;;4956509;28;20524;-86
2022/08/10 12:18:20;;;;;;;0.00;0.00;;;26.60;79.10;;;;;;4940046;29;20055;-87
2022/08/10 12:20:52;;;;;;;0.00;0.00;;;26.50;76.30;;;;;;4956632;28;20106;-86
2022/08/10 12:23:27;;;;;;;0.00;0.00;;;26.60;77.60;;;;;;4951283;28;20044;-86
2022/08/10 12:26:03;;;;;;;0.00;0.00;;;26.70;76.50;;;;;;4941475;29;20556;-86
2022/08/10 12:28:41;;;;;;;0.00;0.00;;;28.40;79.00;;;;;;4939420;29;20047;-87
2022/08/10 12:31:25;;;;;;;0.00;0.00;;;26.80;76.90;;;;;;4937554;29;20048;-86
2022/08/10 12:34:04;;;;;;;0.00;0.00;;;26.90;76.60;;;;;;4955947;29;20072;-86
2022/08/10 12:36:38;;;;;;;0.00;0.00;;;27.80;77.00;;;;;;4940643;29;20071;-87
2022/08/10 12:39:12;;;;;;;0.00;0.00;;;26.70;74.90;;;;;;4939637;29;20399;-86
2022/08/10 12:41:46;;;;;;;0.00;0.00;;;27.30;75.70;;;;;;4938665;29;20579;-86
2022/08/10 12:44:17;;;;;;;0.00;0.00;;;26.80;72.90;;;;;;4954145;29;20453;-87
2022/08/10 12:46:55;;;;;;;0.00;0.00;;;26.70;74.40;;;;;;4940522;29;20062;-86
2022/08/10 12:49:29;;;;;;;0.10;0.00;;;27.00;75.50;;;;;;4939803;29;20381;-86
2022/08/10 12:52:03;;;;;;;0.00;0.00;;;28.00;76.70;;;;;;4938742;29;20390;-86
2022/08/10 12:54:35;;;;;;;0.00;0.00;;;27.00;72.50;;;;;;4938141;29;20056;-86
2022/08/10 12:57:06;;;;;;;0.00;0.00;;;27.20;75.40;;;;;;4931700;29;20047;-86
2022/08/10 12:59:36;;;;;;;0.00;0.00;;;27.30;75.30;;;;;;4944777;29;20060;-87
2022/08/10 13:02:13;;;;;;;0.00;0.00;;;27.30;72.60;;;;;;4944978;29;20062;-86
2022/08/10 13:04:41;;;;;;;0.00;0.00;;;27.30;71.10;;;;;;4949822;29;20043;-85
2022/08/10 13:07:09;;;;;;;0.00;0.00;;;27.30;72.40;;;;;;4943361;29;20062;-85
2022/08/10 13:10:00;;;;;;;0.00;0.00;;;28.00;74.90;;;;;;4942345;29;20055;-83
2022/08/10 13:12:31;;;;;;;0.00;0.00;;;27.40;74.20;;;;;;4956658;28;20047;-85
2022/08/10 13:15:16;;;;;;;0.00;0.00;;;28.50;75.70;;;;;;4935158;29;20047;-87
2022/08/10 13:18:07;;;;;;;0.00;0.00;;;27.50;72.30;;;;;;4936696;29;20559;-86
2022/08/10 13:20:49;;;;;;;0.00;0.00;;;27.60;72.70;;;;;;4940295;29;20075;-86
2022/08/10 13:23:20;;;;;;;0.00;0.00;;;27.70;73.70;;;;;;4935903;29;20048;-85
2022/08/10 13:25:49;;;;;;;0.00;0.00;;;28.10;74.50;;;;;;4933019;29;20043;-86
2022/08/10 13:28:21;;;;;;;0.00;0.00;;;27.60;71.00;;;;;;4939348;29;20094;-87
2022/08/10 13:31:07;;;;;;;0.00;0.00;;;27.70;71.10;;;;;;4939061;29;20055;-87
2022/08/10 13:33:47;;;;;;;0.00;0.00;;;28.10;71.70;;;;;;4937489;29;20108;-86
2022/08/10 13:36:37;;;;;;;0.00;0.00;;;27.80;71.50;;;;;;4950536;28;20107;-86
2022/08/10 13:39:05;;;;;;;0.00;0.00;;;27.90;72.00;;;;;;4928019;29;20102;-82
2022/08/10 13:41:38;;;;;;;0.00;0.00;;;27.80;70.80;;;;;;4947623;28;20131;-87
2022/08/10 13:44:08;;;;;;;0.00;0.00;;;28.00;70.40;;;;;;4952136;29;20052;-87
2022/08/10 13:46:39;;;;;;;0.00;0.00;;;28.10;70.60;;;;;;4933428;29;20048;-87